createdAt,value
2022-08-03T00:00:33.333Z,17.76
2022-08-03T00:01:33.313Z,17.74
2022-08-03T00:02:33.325Z,17.76
2022-08-03T00:03:33.296Z,17.74
2022-08-03T00:04:34.022Z,17.71
2022-08-03T00:05:33.261Z,17.71
2022-08-03T00:06:36.935Z,17.68
2022-08-03T00:07:33.235Z,17.67
2022-08-03T00:08:33.226Z,17.65
2022-08-03T00:09:35.851Z,17.63
2022-08-03T00:10:33.200Z,17.60
2022-08-03T00:11:33.187Z,17.60
2022-08-03T00:12:33.178Z,17.60
2022-08-03T00:13:33.160Z,17.60
2022-08-03T00:14:33.148Z,17.63
2022-08-03T00:15:33.138Z,17.64
2022-08-03T00:16:33.127Z,17.65
2022-08-03T00:17:53.522Z,17.64
2022-08-03T00:18:34.128Z,17.64
2022-08-03T00:19:33.087Z,17.65
2022-08-03T00:20:33.078Z,17.64
2022-08-03T00:21:33.063Z,17.64
2022-08-03T00:22:33.046Z,17.64
2022-08-03T00:23:50.983Z,17.59
2022-08-03T00:24:34.058Z,17.52
2022-08-03T00:25:33.008Z,17.48
2022-08-03T00:26:32.994Z,17.45
2022-08-03T00:27:32.983Z,17.44
2022-08-03T00:28:32.972Z,17.41
2022-08-03T00:29:32.956Z,17.38
2022-08-03T00:30:32.946Z,17.36
2022-08-03T00:31:40.099Z,17.31
2022-08-03T00:32:33.948Z,17.30
2022-08-03T00:33:59.407Z,17.27
2022-08-03T00:34:57.159Z,17.22
2022-08-03T00:35:50.426Z,17.23
2022-08-03T00:36:33.901Z,17.24
2022-08-03T00:37:40.950Z,17.27
2022-08-03T00:38:33.875Z,17.29
2022-08-03T00:39:32.831Z,17.29
2022-08-03T00:40:32.819Z,17.31
2022-08-03T00:41:32.807Z,17.30
2022-08-03T00:42:32.797Z,17.31
2022-08-03T00:43:32.782Z,17.31
2022-08-03T00:44:32.769Z,17.31
2022-08-03T00:45:32.758Z,17.29
2022-08-03T00:46:32.750Z,17.29
2022-08-03T00:47:32.730Z,17.27
2022-08-03T00:48:33.663Z,17.23
2022-08-03T00:49:32.752Z,17.19
2022-08-03T00:50:32.695Z,17.15
2022-08-03T00:51:32.686Z,17.15
2022-08-03T00:52:32.672Z,17.12
2022-08-03T00:53:32.663Z,17.08
2022-08-03T00:54:32.651Z,17.06
2022-08-03T00:55:32.644Z,17.08
2022-08-03T00:56:32.621Z,17.06
2022-08-03T00:57:32.609Z,17.08
2022-08-03T00:58:32.599Z,17.05
2022-08-03T00:59:32.592Z,17.05
2022-08-03T01:00:32.574Z,17.05
2022-08-03T01:01:32.922Z,17.04
2022-08-03T01:02:32.551Z,17.01
2022-08-03T01:03:32.539Z,16.97
2022-08-03T01:04:32.528Z,16.97
2022-08-03T01:05:32.513Z,16.93
2022-08-03T01:06:32.500Z,16.91
2022-08-03T01:07:32.488Z,16.91
2022-08-03T01:08:32.477Z,16.90
2022-08-03T01:09:32.466Z,16.91
2022-08-03T01:10:32.455Z,16.91
2022-08-03T01:11:32.440Z,16.94
2022-08-03T01:12:32.428Z,16.94
2022-08-03T01:14:00.326Z,16.94
2022-08-03T01:14:33.432Z,16.94
2022-08-03T01:15:32.392Z,16.91
2022-08-03T01:16:36.850Z,16.91
2022-08-03T01:17:32.364Z,16.91
2022-08-03T01:18:32.353Z,16.93
2022-08-03T01:19:32.341Z,16.93
2022-08-03T01:20:32.328Z,16.91
2022-08-03T01:21:32.319Z,16.87
2022-08-03T01:22:32.304Z,16.81
2022-08-03T01:23:32.295Z,16.81
2022-08-03T01:24:32.279Z,16.81
2022-08-03T01:25:32.267Z,16.81
2022-08-03T01:26:32.253Z,16.78
2022-08-03T01:27:32.242Z,16.76
2022-08-03T01:28:32.231Z,16.75
2022-08-03T01:29:32.217Z,16.69
2022-08-03T01:30:32.204Z,16.69
2022-08-03T01:31:32.192Z,16.71
2022-08-03T01:33:03.028Z,16.69
2022-08-03T01:33:33.203Z,16.71
2022-08-03T01:34:32.160Z,16.72
2022-08-03T01:35:32.147Z,16.71
2022-08-03T01:36:32.134Z,16.71
2022-08-03T01:37:32.130Z,16.69
2022-08-03T01:38:32.107Z,16.68
2022-08-03T01:39:32.095Z,16.68
2022-08-03T01:40:32.082Z,16.65
2022-08-03T01:41:32.071Z,16.65
2022-08-03T01:42:32.059Z,16.68
2022-08-03T01:43:55.474Z,16.66
2022-08-03T01:44:33.061Z,16.66
2022-08-03T01:45:34.055Z,16.66
2022-08-03T01:46:32.007Z,16.66
2022-08-03T01:47:31.997Z,16.65
2022-08-03T01:48:31.985Z,16.65
2022-08-03T01:49:32.010Z,16.64
2022-08-03T01:50:31.963Z,16.61
2022-08-03T01:52:03.056Z,16.64
2022-08-03T01:52:32.966Z,16.64
2022-08-03T01:53:31.925Z,16.64
2022-08-03T01:54:31.914Z,16.60
2022-08-03T01:55:31.898Z,16.57
2022-08-03T01:56:31.888Z,16.56
2022-08-03T01:57:31.872Z,16.53
2022-08-03T01:58:31.868Z,16.50
2022-08-03T01:59:31.852Z,16.50
2022-08-03T02:00:31.839Z,16.50
2022-08-03T02:02:15.432Z,16.51
2022-08-03T02:02:34.662Z,16.53
2022-08-03T02:03:31.805Z,16.53
2022-08-03T02:04:31.793Z,16.53
2022-08-03T02:05:31.775Z,16.53
2022-08-03T02:07:00.031Z,16.56
2022-08-03T02:07:32.779Z,16.54
2022-08-03T02:08:31.743Z,16.51
2022-08-03T02:09:31.728Z,16.51
2022-08-03T02:10:35.128Z,16.51
2022-08-03T02:11:31.701Z,16.49
2022-08-03T02:12:31.688Z,16.49
2022-08-03T02:13:31.707Z,16.47
2022-08-03T02:14:31.666Z,16.46
2022-08-03T02:15:31.656Z,16.43
2022-08-03T02:16:31.647Z,16.42
2022-08-03T02:17:39.000Z,16.42
2022-08-03T02:18:32.643Z,16.41
2022-08-03T02:19:35.607Z,16.42
2022-08-03T02:20:31.591Z,16.43
2022-08-03T02:21:56.746Z,16.42
2022-08-03T02:22:32.598Z,16.43
2022-08-03T02:23:31.564Z,16.43
2022-08-03T02:24:31.543Z,16.43
2022-08-03T02:25:31.534Z,16.41
2022-08-03T02:26:31.519Z,16.41
2022-08-03T02:27:31.508Z,16.39
2022-08-03T02:28:31.493Z,16.39
2022-08-03T02:29:39.143Z,16.39
2022-08-03T02:30:32.500Z,16.33
2022-08-03T02:31:31.458Z,16.31
2022-08-03T02:32:31.444Z,16.28
2022-08-03T02:33:31.432Z,16.28
2022-08-03T02:34:31.415Z,16.26
2022-08-03T02:35:31.406Z,16.28
2022-08-03T02:36:31.544Z,16.29
2022-08-03T02:37:31.384Z,16.29
2022-08-03T02:38:31.368Z,16.29
2022-08-03T02:39:31.354Z,16.29
2022-08-03T02:40:31.346Z,16.26
2022-08-03T02:41:31.336Z,16.23
2022-08-03T02:42:31.320Z,16.23
2022-08-03T02:43:39.069Z,16.21
2022-08-03T02:44:32.321Z,16.17
2022-08-03T02:45:31.284Z,16.15
2022-08-03T02:46:31.271Z,16.12
2022-08-03T02:47:53.972Z,16.08
2022-08-03T02:48:32.281Z,16.05
2022-08-03T02:49:40.729Z,16.05
2022-08-03T02:50:32.251Z,16.02
2022-08-03T02:51:31.213Z,16.02
2022-08-03T02:52:31.198Z,16.01
2022-08-03T02:53:31.188Z,16.00
2022-08-03T02:54:31.175Z,16.01
2022-08-03T02:55:31.164Z,15.98
2022-08-03T02:56:31.150Z,16.00
2022-08-03T02:57:31.140Z,16.00
2022-08-03T02:58:31.128Z,16.01
2022-08-03T02:59:31.115Z,16.01
2022-08-03T03:00:31.103Z,16.04
2022-08-03T03:01:31.139Z,16.04
2022-08-03T03:02:31.074Z,16.04
2022-08-03T03:03:33.855Z,16.02
2022-08-03T03:04:33.153Z,16.02
2022-08-03T03:05:54.898Z,16.04
2022-08-03T03:06:32.058Z,16.04
2022-08-03T03:07:31.315Z,16.05
2022-08-03T03:08:32.035Z,16.05
2022-08-03T03:09:40.523Z,16.05
2022-08-03T03:10:32.010Z,16.05
2022-08-03T03:11:30.967Z,16.02
2022-08-03T03:12:30.954Z,16.00
2022-08-03T03:13:30.938Z,16.01
2022-08-03T03:14:33.711Z,16.00
2022-08-03T03:15:30.918Z,16.00
2022-08-03T03:16:30.904Z,16.00
2022-08-03T03:17:30.891Z,15.95
2022-08-03T03:18:30.882Z,15.94
2022-08-03T03:19:30.868Z,15.97
2022-08-03T03:20:30.853Z,15.95
2022-08-03T03:21:30.843Z,15.97
2022-08-03T03:22:30.831Z,15.95
2022-08-03T03:23:30.817Z,15.91
2022-08-03T03:24:30.806Z,15.88
2022-08-03T03:25:30.792Z,15.86
2022-08-03T03:26:30.779Z,15.84
2022-08-03T03:27:30.770Z,15.82
2022-08-03T03:28:30.759Z,15.82
2022-08-03T03:29:30.743Z,15.83
2022-08-03T03:30:31.759Z,15.80
2022-08-03T03:31:30.718Z,15.83
2022-08-03T03:32:30.705Z,15.83
2022-08-03T03:33:30.692Z,15.83
2022-08-03T03:34:30.680Z,15.84
2022-08-03T03:35:30.682Z,15.84
2022-08-03T03:36:31.688Z,15.86
2022-08-03T03:37:30.643Z,15.83
2022-08-03T03:38:30.628Z,15.80
2022-08-03T03:39:30.616Z,15.79
2022-08-03T03:40:30.607Z,15.79
2022-08-03T03:41:30.590Z,15.77
2022-08-03T03:42:30.578Z,15.76
2022-08-03T03:43:30.566Z,15.79
2022-08-03T03:44:30.548Z,15.79
2022-08-03T03:45:30.539Z,15.80
2022-08-03T03:46:30.537Z,15.79
2022-08-03T03:47:32.786Z,15.79
2022-08-03T03:48:30.505Z,15.80
2022-08-03T03:49:30.618Z,15.80
2022-08-03T03:50:30.479Z,15.82
2022-08-03T03:51:30.486Z,15.83
2022-08-03T03:52:30.453Z,15.82
2022-08-03T03:53:30.450Z,15.83
2022-08-03T03:54:30.427Z,15.82
2022-08-03T03:55:30.414Z,15.82
2022-08-03T03:56:30.404Z,15.79
2022-08-03T03:57:30.394Z,15.77
2022-08-03T03:58:30.376Z,15.79
2022-08-03T03:59:30.364Z,15.76
2022-08-03T04:00:30.430Z,15.73
2022-08-03T04:01:30.341Z,15.68
2022-08-03T04:02:30.325Z,15.68
2022-08-03T04:03:30.315Z,15.68
2022-08-03T04:04:30.301Z,15.64
2022-08-03T04:05:30.289Z,15.62
2022-08-03T04:06:30.275Z,15.58
2022-08-03T04:07:30.262Z,15.57
2022-08-03T04:08:30.247Z,15.57
2022-08-03T04:09:30.232Z,15.59
2022-08-03T04:10:30.223Z,15.62
2022-08-03T04:11:31.843Z,15.67
2022-08-03T04:12:30.197Z,15.68
2022-08-03T04:13:30.182Z,15.68
2022-08-03T04:14:30.172Z,15.72
2022-08-03T04:15:30.155Z,15.70
2022-08-03T04:16:30.144Z,15.70
2022-08-03T04:17:30.131Z,15.68
2022-08-03T04:18:30.117Z,15.67
2022-08-03T04:19:30.105Z,15.64
2022-08-03T04:20:30.097Z,15.65
2022-08-03T04:21:30.079Z,15.65
2022-08-03T04:22:30.068Z,15.65
2022-08-03T04:23:30.057Z,15.67
2022-08-03T04:24:30.045Z,15.67
2022-08-03T04:25:30.028Z,15.67
2022-08-03T04:26:30.015Z,15.72
2022-08-03T04:27:29.999Z,15.75
2022-08-03T04:28:31.844Z,15.76
2022-08-03T04:29:29.980Z,15.77
2022-08-03T04:30:29.964Z,15.79
2022-08-03T04:31:29.956Z,15.79
2022-08-03T04:32:29.937Z,15.80
2022-08-03T04:33:30.441Z,15.80
2022-08-03T04:34:29.912Z,15.82
2022-08-03T04:36:02.222Z,15.82
2022-08-03T04:36:30.916Z,15.82
2022-08-03T04:37:29.874Z,15.82
2022-08-03T04:38:29.861Z,15.80
2022-08-03T04:39:29.844Z,15.79
2022-08-03T04:40:29.969Z,15.76
2022-08-03T04:41:29.819Z,15.75
2022-08-03T04:42:29.806Z,15.75
2022-08-03T04:43:29.794Z,15.76
2022-08-03T04:44:29.781Z,15.76
2022-08-03T04:45:29.768Z,15.76
2022-08-03T04:46:29.759Z,15.75
2022-08-03T04:47:29.743Z,15.75
2022-08-03T04:48:29.740Z,15.75
2022-08-03T04:49:29.790Z,15.72
2022-08-03T04:50:29.706Z,15.73
2022-08-03T04:51:29.697Z,15.73
2022-08-03T04:52:29.685Z,15.75
2022-08-03T04:53:29.667Z,15.76
2022-08-03T04:54:29.652Z,15.75
2022-08-03T04:55:29.640Z,15.75
2022-08-03T04:56:29.624Z,15.75
2022-08-03T04:57:29.615Z,15.75
2022-08-03T04:58:29.600Z,15.76
2022-08-03T04:59:29.590Z,15.77
2022-08-03T05:00:29.572Z,15.80
2022-08-03T05:01:29.638Z,15.82
2022-08-03T05:02:29.548Z,15.90
2022-08-03T05:03:29.535Z,15.94
2022-08-03T05:04:29.524Z,16.04
2022-08-03T05:05:48.995Z,16.12
2022-08-03T05:06:30.530Z,16.24
2022-08-03T05:07:36.066Z,16.33
2022-08-03T05:08:30.504Z,16.43
2022-08-03T05:09:50.263Z,16.56
2022-08-03T05:10:30.480Z,16.65
2022-08-03T05:11:29.434Z,16.75
2022-08-03T05:12:32.598Z,16.87
2022-08-03T05:13:29.407Z,17.01
2022-08-03T05:14:29.397Z,17.19
2022-08-03T05:15:29.384Z,17.31
2022-08-03T05:16:29.369Z,17.42
2022-08-03T05:17:29.358Z,17.56
2022-08-03T05:18:29.344Z,17.74
2022-08-03T05:19:29.334Z,17.89
2022-08-03T05:20:29.322Z,18.10
2022-08-03T05:21:51.838Z,18.28
2022-08-03T05:22:30.319Z,18.43
2022-08-03T05:23:29.279Z,18.66
2022-08-03T05:24:29.266Z,18.88
2022-08-03T05:25:29.253Z,19.08
2022-08-03T05:26:29.264Z,19.26
2022-08-03T05:27:29.231Z,19.40
2022-08-03T05:28:29.212Z,19.63
2022-08-03T05:29:29.198Z,19.84
2022-08-03T05:30:33.456Z,20.14
2022-08-03T05:31:29.181Z,20.50
2022-08-03T05:32:29.160Z,20.82
2022-08-03T05:33:29.150Z,21.06
2022-08-03T05:34:29.136Z,21.39
2022-08-03T05:36:02.560Z,21.60
2022-08-03T05:36:30.141Z,21.99
2022-08-03T05:37:29.100Z,22.39
2022-08-03T05:38:34.040Z,22.84
2022-08-03T05:39:29.078Z,23.13
2022-08-03T05:40:29.057Z,23.39
2022-08-03T05:41:37.341Z,23.69
2022-08-03T05:42:30.062Z,24.21
2022-08-03T05:43:29.023Z,24.63
2022-08-03T05:44:29.009Z,25.01
2022-08-03T05:45:28.994Z,25.10
2022-08-03T05:46:28.985Z,25.33
2022-08-03T05:47:28.968Z,25.50
2022-08-03T05:48:28.955Z,25.91
2022-08-03T05:49:29.099Z,26.03
2022-08-03T05:50:28.926Z,26.16
2022-08-03T05:51:28.925Z,26.13
2022-08-03T05:52:28.901Z,26.43
2022-08-03T05:53:28.891Z,26.81
2022-08-03T05:54:56.604Z,27.33
2022-08-03T05:55:29.894Z,27.54
2022-08-03T05:56:28.853Z,27.71
2022-08-03T05:57:28.836Z,28.02
2022-08-03T05:58:29.868Z,28.35
2022-08-03T05:59:38.259Z,28.48
2022-08-03T06:00:29.834Z,28.62
2022-08-03T06:01:28.850Z,28.62
2022-08-03T06:02:28.775Z,28.63
2022-08-03T06:03:28.763Z,28.17
2022-08-03T06:04:28.747Z,27.35
2022-08-03T06:05:28.739Z,26.29
2022-08-03T06:06:32.169Z,25.65
2022-08-03T06:07:28.708Z,25.28
2022-08-03T06:08:28.696Z,25.60
2022-08-03T06:10:34.240Z,25.87
2022-08-03T06:10:35.886Z,25.72
2022-08-03T06:11:29.689Z,25.36
2022-08-03T06:12:28.649Z,24.78
2022-08-03T06:13:28.640Z,24.29
2022-08-03T06:14:28.619Z,23.63
2022-08-03T06:15:28.603Z,23.31
2022-08-03T06:16:28.590Z,23.09
2022-08-03T06:17:28.581Z,23.08
2022-08-03T06:18:29.598Z,23.02
2022-08-03T06:19:28.554Z,23.10
2022-08-03T06:20:28.544Z,23.43
2022-08-03T06:21:28.530Z,24.33
2022-08-03T06:22:28.520Z,25.38
2022-08-03T06:23:52.511Z,26.10
2022-08-03T06:24:29.520Z,26.90
2022-08-03T06:25:28.476Z,27.39
2022-08-03T06:26:28.467Z,27.70
2022-08-03T06:27:36.339Z,27.70
2022-08-03T06:28:52.358Z,27.47
2022-08-03T06:29:29.461Z,27.10
2022-08-03T06:30:28.410Z,26.70
2022-08-03T06:31:32.431Z,26.52
2022-08-03T06:32:28.384Z,26.81
2022-08-03T06:34:30.680Z,27.48
2022-08-03T06:34:32.440Z,28.14
2022-08-03T06:35:28.345Z,28.44
2022-08-03T06:36:28.340Z,29.19
2022-08-03T06:37:28.323Z,29.87
2022-08-03T06:38:28.308Z,30.15
2022-08-03T06:39:28.294Z,30.37
2022-08-03T06:40:28.286Z,31.02
2022-08-03T06:41:28.277Z,31.62
2022-08-03T06:42:28.251Z,32.18
2022-08-03T06:43:28.244Z,32.63
2022-08-03T06:44:29.266Z,33.12
2022-08-03T06:45:31.787Z,33.50
2022-08-03T06:46:28.208Z,33.79
2022-08-03T06:47:28.205Z,34.08
2022-08-03T06:48:28.184Z,33.89
2022-08-03T06:49:28.233Z,33.90
2022-08-03T06:50:28.169Z,34.02
2022-08-03T06:52:05.528Z,34.24
2022-08-03T06:52:38.127Z,34.51
2022-08-03T06:53:29.145Z,34.71
2022-08-03T06:54:28.107Z,34.88
2022-08-03T06:55:28.096Z,35.11
2022-08-03T06:56:28.081Z,35.27
2022-08-03T06:57:28.073Z,35.15
2022-08-03T06:58:28.060Z,35.15
2022-08-03T07:00:09.607Z,35.26
2022-08-03T07:00:29.054Z,35.42
2022-08-03T07:01:28.078Z,35.49
2022-08-03T07:02:28.441Z,35.66
2022-08-03T07:03:27.997Z,35.83
2022-08-03T07:04:27.985Z,36.05
2022-08-03T07:05:27.972Z,36.24
2022-08-03T07:06:27.959Z,36.24
2022-08-03T07:07:27.950Z,36.09
2022-08-03T07:08:33.829Z,36.16
2022-08-03T07:09:28.950Z,36.16
2022-08-03T07:10:27.906Z,36.17
2022-08-03T07:11:27.899Z,36.28
2022-08-03T07:12:27.967Z,36.37
2022-08-03T07:13:27.868Z,36.62
2022-08-03T07:14:27.855Z,36.31
2022-08-03T07:15:54.327Z,36.31
2022-08-03T07:16:28.856Z,36.42
2022-08-03T07:17:27.807Z,36.40
2022-08-03T07:18:29.991Z,36.23
2022-08-03T07:19:27.788Z,36.45
2022-08-03T07:20:30.966Z,36.68
2022-08-03T07:21:27.764Z,36.91
2022-08-03T07:22:27.749Z,37.17
2022-08-03T07:23:27.739Z,37.42
2022-08-03T07:24:27.732Z,37.63
2022-08-03T07:25:27.710Z,37.74
2022-08-03T07:26:27.703Z,37.97
2022-08-03T07:27:27.691Z,38.15
2022-08-03T07:28:27.681Z,38.26
2022-08-03T07:29:27.657Z,38.31
2022-08-03T07:30:27.646Z,38.28
2022-08-03T07:31:27.639Z,38.43
2022-08-03T07:32:28.648Z,38.42
2022-08-03T07:33:27.617Z,38.30
2022-08-03T07:34:27.604Z,38.17
2022-08-03T07:35:27.584Z,38.12
2022-08-03T07:36:27.577Z,37.82
2022-08-03T07:37:27.566Z,37.49
2022-08-03T07:38:27.547Z,37.65
2022-08-03T07:39:27.540Z,37.86
2022-08-03T07:40:31.466Z,37.74
2022-08-03T07:41:27.520Z,37.90
2022-08-03T07:42:27.514Z,38.15
2022-08-03T07:43:27.493Z,38.30
2022-08-03T07:44:27.474Z,38.36
2022-08-03T07:45:27.465Z,38.49
2022-08-03T07:46:27.450Z,38.65
2022-08-03T07:47:35.289Z,38.89
2022-08-03T07:48:28.455Z,38.84
2022-08-03T07:49:27.465Z,38.86
2022-08-03T07:50:27.404Z,37.74
2022-08-03T07:51:27.382Z,37.33
2022-08-03T07:52:28.356Z,37.59
2022-08-03T07:53:27.355Z,37.64
2022-08-03T07:54:27.347Z,37.51
2022-08-03T07:55:27.334Z,37.59
2022-08-03T07:56:27.323Z,37.03
2022-08-03T07:57:27.310Z,36.65
2022-08-03T07:58:27.299Z,36.62
2022-08-03T07:59:27.283Z,35.85
2022-08-03T08:00:27.269Z,35.78
2022-08-03T08:01:27.334Z,36.35
2022-08-03T08:02:27.247Z,36.67
2022-08-03T08:03:27.235Z,36.43
2022-08-03T08:04:27.218Z,36.01
2022-08-03T08:05:27.219Z,35.79
2022-08-03T08:06:27.199Z,35.71
2022-08-03T08:07:27.190Z,35.10
2022-08-03T08:08:27.170Z,35.05
2022-08-03T08:09:27.175Z,35.33
2022-08-03T08:10:27.150Z,35.37
2022-08-03T08:11:27.138Z,35.53
2022-08-03T08:12:27.123Z,34.86
2022-08-03T08:13:27.113Z,34.11
2022-08-03T08:14:27.094Z,32.60
2022-08-03T08:15:27.090Z,32.14
2022-08-03T08:16:27.081Z,31.96
2022-08-03T08:17:27.066Z,31.78
2022-08-03T08:18:27.051Z,31.18
2022-08-03T08:19:27.041Z,30.62
2022-08-03T08:20:30.702Z,30.24
2022-08-03T08:21:27.014Z,29.59
2022-08-03T08:22:30.723Z,29.16
2022-08-03T08:23:43.844Z,29.02
2022-08-03T08:24:28.000Z,28.91
2022-08-03T08:25:26.967Z,28.91
2022-08-03T08:26:26.954Z,28.82
2022-08-03T08:27:26.945Z,28.72
2022-08-03T08:28:32.448Z,28.75
2022-08-03T08:29:27.952Z,28.78
2022-08-03T08:30:26.906Z,28.69
2022-08-03T08:31:26.891Z,28.78
2022-08-03T08:32:26.884Z,28.78
2022-08-03T08:33:37.209Z,28.59
2022-08-03T08:34:27.894Z,28.62
2022-08-03T08:35:26.841Z,28.67
2022-08-03T08:36:26.839Z,28.57
2022-08-03T08:37:26.833Z,28.44
2022-08-03T08:38:26.805Z,28.14
2022-08-03T08:39:26.790Z,27.93
2022-08-03T08:40:26.785Z,27.75
2022-08-03T08:41:32.129Z,27.74
2022-08-03T08:42:26.755Z,27.83
2022-08-03T08:43:26.742Z,27.92
2022-08-03T08:44:26.727Z,27.85
2022-08-03T08:45:26.734Z,27.85
2022-08-03T08:46:26.702Z,27.67
2022-08-03T08:47:26.706Z,27.44
2022-08-03T08:48:26.674Z,27.33
2022-08-03T08:49:26.752Z,27.32
2022-08-03T08:50:27.623Z,27.33
2022-08-03T08:51:54.835Z,27.40
2022-08-03T08:52:32.040Z,27.45
2022-08-03T08:53:27.630Z,27.48
2022-08-03T08:54:26.595Z,27.60
2022-08-03T08:55:26.595Z,27.67
2022-08-03T08:56:26.577Z,27.58
2022-08-03T08:57:41.815Z,27.48
2022-08-03T08:58:27.580Z,27.45
2022-08-03T08:59:26.540Z,27.55
2022-08-03T09:00:27.558Z,27.54
2022-08-03T09:01:26.548Z,27.58
2022-08-03T09:02:26.498Z,27.63
2022-08-03T09:03:30.065Z,27.68
2022-08-03T09:04:26.473Z,27.67
2022-08-03T09:05:53.868Z,27.70
2022-08-03T09:06:27.476Z,27.67
2022-08-03T09:07:26.436Z,27.67
2022-08-03T09:08:26.428Z,27.70
2022-08-03T09:10:08.429Z,27.58
2022-08-03T09:10:27.435Z,27.60
2022-08-03T09:11:52.542Z,27.70
2022-08-03T09:12:42.914Z,27.63
2022-08-03T09:13:27.400Z,27.49
2022-08-03T09:14:39.220Z,27.49
2022-08-03T09:15:27.367Z,27.44
2022-08-03T09:16:26.320Z,27.36
2022-08-03T09:17:26.314Z,27.32
2022-08-03T09:18:26.295Z,27.33
2022-08-03T09:19:26.280Z,27.26
2022-08-03T09:20:26.270Z,27.26
2022-08-03T09:21:34.509Z,27.29
2022-08-03T09:22:27.284Z,27.27
2022-08-03T09:23:59.290Z,27.32
2022-08-03T09:24:40.571Z,27.27
2022-08-03T09:25:27.297Z,27.25
2022-08-03T09:26:26.392Z,27.29
2022-08-03T09:27:26.248Z,27.36
2022-08-03T09:28:52.783Z,27.42
2022-08-03T09:29:27.188Z,27.54
2022-08-03T09:30:34.368Z,27.58
2022-08-03T09:31:27.163Z,27.58
2022-08-03T09:32:26.118Z,27.63
2022-08-03T09:33:26.105Z,27.55
2022-08-03T09:34:27.125Z,27.63
2022-08-03T09:35:51.735Z,27.64
2022-08-03T09:36:27.096Z,27.65
2022-08-03T09:38:11.139Z,27.71
2022-08-03T09:38:27.077Z,27.74
2022-08-03T09:39:41.631Z,27.82
2022-08-03T09:40:27.042Z,27.89
2022-08-03T09:41:26.003Z,27.96
2022-08-03T09:42:25.989Z,28.00
2022-08-03T09:43:25.978Z,28.04
2022-08-03T09:44:26.213Z,28.11
2022-08-03T09:45:25.951Z,28.15
2022-08-03T09:46:25.938Z,28.08
2022-08-03T09:47:28.303Z,27.92
2022-08-03T09:48:25.910Z,27.86
2022-08-03T09:49:26.071Z,27.80
2022-08-03T09:50:25.887Z,27.82
2022-08-03T09:51:33.161Z,27.96
2022-08-03T09:52:37.806Z,28.02
2022-08-03T09:53:26.887Z,28.08
2022-08-03T09:54:25.841Z,28.05
2022-08-03T09:56:33.372Z,28.00
2022-08-03T09:56:35.966Z,28.00
2022-08-03T09:57:26.828Z,27.95
2022-08-03T09:58:25.791Z,27.90
2022-08-03T09:59:26.033Z,27.86
2022-08-03T10:00:25.767Z,27.71
2022-08-03T10:01:25.773Z,27.65
2022-08-03T10:02:25.742Z,27.63
2022-08-03T10:03:25.729Z,27.63
2022-08-03T10:04:25.710Z,27.63
2022-08-03T10:05:25.753Z,27.60
2022-08-03T10:06:29.103Z,27.59
2022-08-03T10:07:25.677Z,27.64
2022-08-03T10:08:25.660Z,27.73
2022-08-03T10:09:25.648Z,27.77
2022-08-03T10:10:29.322Z,27.85
2022-08-03T10:11:25.620Z,27.95
2022-08-03T10:12:25.613Z,27.98
2022-08-03T10:13:25.611Z,28.01
2022-08-03T10:14:25.591Z,28.02
2022-08-03T10:16:21.916Z,28.01
2022-08-03T10:16:26.663Z,28.00
2022-08-03T10:17:25.552Z,28.04
2022-08-03T10:18:25.536Z,28.05
2022-08-03T10:19:25.521Z,28.01
2022-08-03T10:20:25.512Z,28.01
2022-08-03T10:21:25.503Z,28.04
2022-08-03T10:22:25.482Z,28.05
2022-08-03T10:23:25.476Z,28.00
2022-08-03T10:24:25.460Z,27.98
2022-08-03T10:25:33.213Z,27.92
2022-08-03T10:26:26.462Z,27.95
2022-08-03T10:27:25.423Z,27.98
2022-08-03T10:28:25.405Z,28.01
2022-08-03T10:29:25.398Z,28.02
2022-08-03T10:30:26.221Z,28.05
2022-08-03T10:31:25.371Z,28.04
2022-08-03T10:32:25.363Z,28.05
2022-08-03T10:33:50.133Z,28.02
2022-08-03T10:34:26.367Z,28.00
2022-08-03T10:35:25.335Z,28.00
2022-08-03T10:36:25.316Z,28.04
2022-08-03T10:37:25.295Z,27.96
2022-08-03T10:38:25.281Z,27.92
2022-08-03T10:39:25.276Z,27.95
2022-08-03T10:40:47.559Z,27.95
2022-08-03T10:41:26.273Z,27.96
2022-08-03T10:42:26.331Z,27.96
2022-08-03T10:43:25.222Z,28.01
2022-08-03T10:44:25.212Z,27.98
2022-08-03T10:45:25.193Z,27.92
2022-08-03T10:46:25.178Z,27.87
2022-08-03T10:47:25.168Z,27.87
2022-08-03T10:48:25.152Z,27.86
2022-08-03T10:49:33.658Z,27.90
2022-08-03T10:50:26.158Z,27.92
2022-08-03T10:51:25.118Z,27.93
2022-08-03T10:52:32.956Z,27.95
2022-08-03T10:53:26.120Z,28.00
2022-08-03T10:54:25.078Z,28.02
2022-08-03T10:55:25.070Z,28.07
2022-08-03T10:56:46.595Z,28.14
2022-08-03T10:57:26.310Z,28.25
2022-08-03T10:58:30.558Z,28.23
2022-08-03T10:59:27.780Z,28.25
2022-08-03T11:00:25.128Z,28.25
2022-08-03T11:01:25.048Z,28.23
2022-08-03T11:02:26.002Z,28.23
2022-08-03T11:03:24.965Z,28.15
2022-08-03T11:04:24.990Z,28.12
2022-08-03T11:05:24.941Z,28.10
2022-08-03T11:06:24.924Z,28.08
2022-08-03T11:07:24.916Z,28.08
2022-08-03T11:08:24.905Z,28.10
2022-08-03T11:09:24.889Z,28.08
2022-08-03T11:10:24.875Z,28.05
2022-08-03T11:11:24.863Z,28.01
2022-08-03T11:12:30.062Z,28.00
2022-08-03T11:13:25.866Z,28.00
2022-08-03T11:14:24.830Z,28.00
2022-08-03T11:15:24.811Z,28.01
2022-08-03T11:16:24.801Z,28.00
2022-08-03T11:17:24.792Z,27.92
2022-08-03T11:18:26.833Z,27.92
2022-08-03T11:19:27.646Z,28.01
2022-08-03T11:20:24.747Z,28.05
2022-08-03T11:21:28.822Z,28.14
2022-08-03T11:22:24.722Z,28.19
2022-08-03T11:24:04.259Z,28.25
2022-08-03T11:24:25.773Z,28.29
2022-08-03T11:25:53.465Z,28.37
2022-08-03T11:26:25.706Z,28.41
2022-08-03T11:27:24.656Z,28.39
2022-08-03T11:28:24.647Z,28.35
2022-08-03T11:29:24.637Z,28.41
2022-08-03T11:30:27.479Z,28.56
2022-08-03T11:31:48.808Z,28.62
2022-08-03T11:32:25.632Z,28.63
2022-08-03T11:33:24.587Z,28.72
2022-08-03T11:34:24.902Z,28.79
2022-08-03T11:35:24.554Z,28.76
2022-08-03T11:36:32.047Z,28.70
2022-08-03T11:37:30.141Z,28.72
2022-08-03T11:38:25.549Z,28.75
2022-08-03T11:39:24.508Z,28.76
2022-08-03T11:40:24.490Z,28.70
2022-08-03T11:41:24.479Z,28.70
2022-08-03T11:42:24.501Z,28.72
2022-08-03T11:43:28.981Z,28.74
2022-08-03T11:44:25.476Z,28.74
2022-08-03T11:45:24.428Z,28.76
2022-08-03T11:46:29.473Z,28.79
2022-08-03T11:47:24.401Z,28.82
2022-08-03T11:48:24.395Z,28.91
2022-08-03T11:49:24.458Z,28.91
2022-08-03T11:50:24.363Z,28.85
2022-08-03T11:51:24.354Z,28.79
2022-08-03T11:52:27.331Z,28.81
2022-08-03T11:53:24.333Z,28.82
2022-08-03T11:54:24.320Z,28.82
2022-08-03T11:55:27.812Z,28.89
2022-08-03T11:56:25.322Z,28.88
2022-08-03T11:59:16.540Z,28.91
2022-08-03T11:59:18.873Z,28.84
2022-08-03T11:59:25.280Z,28.93
2022-08-03T12:00:24.239Z,28.98
2022-08-03T12:01:24.234Z,28.98
2022-08-03T12:02:24.218Z,28.97
2022-08-03T12:03:24.271Z,28.97
2022-08-03T12:04:24.188Z,28.94
2022-08-03T12:05:24.180Z,28.97
2022-08-03T12:06:24.166Z,28.97
2022-08-03T12:08:02.338Z,28.97
2022-08-03T12:08:25.167Z,29.02
2022-08-03T12:09:24.127Z,29.04
2022-08-03T12:10:24.123Z,29.08
2022-08-03T12:11:24.100Z,29.10
2022-08-03T12:12:24.086Z,29.12
2022-08-03T12:14:30.063Z,29.05
2022-08-03T12:14:50.547Z,29.04
2022-08-03T12:15:25.095Z,29.07
2022-08-03T12:16:24.038Z,29.01
2022-08-03T12:17:24.024Z,29.02
2022-08-03T12:18:24.009Z,28.97
2022-08-03T12:19:24.000Z,28.97
2022-08-03T12:20:34.793Z,29.01
2022-08-03T12:21:25.001Z,29.04
2022-08-03T12:22:23.959Z,29.07
2022-08-03T12:23:23.948Z,29.10
2022-08-03T12:24:23.935Z,29.10
2022-08-03T12:25:38.475Z,29.08
2022-08-03T12:26:24.948Z,29.08
2022-08-03T12:27:23.896Z,29.19
2022-08-03T12:28:37.266Z,29.23
2022-08-03T12:29:24.903Z,29.32
2022-08-03T12:30:23.861Z,29.41
2022-08-03T12:31:23.845Z,29.49
2022-08-03T12:32:23.835Z,29.51
2022-08-03T12:33:23.824Z,29.57
2022-08-03T12:34:23.810Z,29.65
2022-08-03T12:35:23.799Z,29.61
2022-08-03T12:36:23.780Z,29.59
2022-08-03T12:37:23.956Z,29.63
2022-08-03T12:38:23.756Z,29.65
2022-08-03T12:39:23.746Z,29.68
2022-08-03T12:40:27.903Z,29.76
2022-08-03T12:41:23.716Z,29.81
2022-08-03T12:42:23.707Z,29.78
2022-08-03T12:43:23.697Z,29.78
2022-08-03T12:44:23.687Z,29.79
2022-08-03T12:45:23.669Z,29.82
2022-08-03T12:46:23.655Z,29.82
2022-08-03T12:47:23.642Z,29.82
2022-08-03T12:48:23.630Z,29.79
2022-08-03T12:49:23.702Z,29.81
2022-08-03T12:50:23.615Z,29.79
2022-08-03T12:51:23.591Z,29.82
2022-08-03T12:52:23.578Z,29.81